sensor_id;sensor_type;location;lat;lon;timestamp;pressure;altitude;pressure_sealevel;temperature;humidity
16094;BME280;8151;47.824;12.092;2023-05-19T00:00:13;96706.41;;;12.35;67.04
16094;BME280;8151;47.824;12.092;2023-05-19T00:02:42;96700.28;;;12.35;67.17
16094;BME280;8151;47.824;12.092;2023-05-19T00:05:12;96703.09;;;12.33;67.35
16094;BME280;8151;47.824;12.092;2023-05-19T00:07:44;96698.78;;;12.32;67.38
16094;BME280;8151;47.824;12.092;2023-05-19T00:10:18;96696.13;;;12.32;67.19
16094;BME280;8151;47.824;12.092;2023-05-19T00:12:47;96691.47;;;12.34;67.24
16094;BME280;8151;47.824;12.092;2023-05-19T00:15:19;96693.47;;;12.32;67.27
16094;BME280;8151;47.824;12.092;2023-05-19T00:17:48;96687.50;;;12.30;67.21
16094;BME280;8151;47.824;12.092;2023-05-19T00:20:18;96690.53;;;12.27;67.38
16094;BME280;8151;47.824;12.092;2023-05-19T00:22:58;96687.19;;;12.25;67.46
16094;BME280;8151;47.824;12.092;2023-05-19T00:25:26;96688.03;;;12.26;67.31
16094;BME280;8151;47.824;12.092;2023-05-19T00:27:54;96687.19;;;12.25;67.43
16094;BME280;8151;47.824;12.092;2023-05-19T00:30:25;96677.41;;;12.26;67.31
16094;BME280;8151;47.824;12.092;2023-05-19T00:32:53;96682.72;;;12.26;67.27
16094;BME280;8151;47.824;12.092;2023-05-19T00:35:22;96680.88;;;12.26;67.48
16094;BME280;8151;47.824;12.092;2023-05-19T00:37:51;96681.06;;;12.25;67.21
16094;BME280;8151;47.824;12.092;2023-05-19T00:40:21;96670.81;;;12.21;67.39
16094;BME280;8151;47.824;12.092;2023-05-19T00:42:51;96677.91;;;12.21;67.37
16094;BME280;8151;47.824;12.092;2023-05-19T00:45:19;96676.44;;;12.18;67.26
16094;BME280;8151;47.824;12.092;2023-05-19T00:47:48;96670.31;;;12.18;67.40
16094;BME280;8151;47.824;12.092;2023-05-19T00:50:16;96672.31;;;12.16;67.43
16094;BME280;8151;47.824;12.092;2023-05-19T00:52:45;96673.47;;;12.13;67.46
16094;BME280;8151;47.824;12.092;2023-05-19T00:55:14;96670.16;;;12.11;67.46
16094;BME280;8151;47.824;12.092;2023-05-19T00:57:43;96672.63;;;12.13;67.56
16094;BME280;8151;47.824;12.092;2023-05-19T01:00:14;96668.16;;;12.13;67.60
16094;BME280;8151;47.824;12.092;2023-05-19T01:02:42;96671.81;;;12.12;67.62
16094;BME280;8151;47.824;12.092;2023-05-19T01:05:11;96665.34;;;12.15;67.63
16094;BME280;8151;47.824;12.092;2023-05-19T01:07:41;96673.13;;;12.16;67.60
16094;BME280;8151;47.824;12.092;2023-05-19T01:10:15;96672.31;;;12.16;67.67
16094;BME280;8151;47.824;12.092;2023-05-19T01:12:45;96670.63;;;12.15;67.88
16094;BME280;8151;47.824;12.092;2023-05-19T01:15:14;96670.63;;;12.15;67.92
16094;BME280;8151;47.824;12.092;2023-05-19T01:17:47;96671.47;;;12.15;67.95
16094;BME280;8151;47.824;12.092;2023-05-19T01:20:20;96672.47;;;12.14;68.11
16094;BME280;8151;47.824;12.092;2023-05-19T01:23:17;96672.63;;;12.13;68.35
16094;BME280;8151;47.824;12.092;2023-05-19T01:26:09;96663.88;;;12.12;68.34
16094;BME280;8151;47.824;12.092;2023-05-19T01:28:56;96671.00;;;12.12;68.42
16094;BME280;8151;47.824;12.092;2023-05-19T01:31:32;96666.03;;;12.09;68.22
16094;BME280;8151;47.824;12.092;2023-05-19T01:34:01;96671.16;;;12.10;68.15
16094;BME280;8151;47.824;12.092;2023-05-19T01:36:32;96673.66;;;12.12;68.47
16094;BME280;8151;47.824;12.092;2023-05-19T01:39:01;96670.00;;;12.13;68.44
16094;BME280;8151;47.824;12.092;2023-05-19T01:41:29;96671.00;;;12.12;68.51
16094;BME280;8151;47.824;12.092;2023-05-19T01:44:00;96657.75;;;12.12;68.47
16094;BME280;8151;47.824;12.092;2023-05-19T01:46:28;96658.56;;;12.12;68.68
16094;BME280;8151;47.824;12.092;2023-05-19T01:48:59;96661.22;;;12.12;68.81
16094;BME280;8151;47.824;12.092;2023-05-19T01:51:28;96666.69;;;12.11;68.74
16094;BME280;8151;47.824;12.092;2023-05-19T01:53:57;96667.69;;;12.10;69.12
16094;BME280;8151;47.824;12.092;2023-05-19T01:56:33;96659.72;;;12.10;68.78
16094;BME280;8151;47.824;12.092;2023-05-19T01:59:14;96657.41;;;12.07;69.11
16094;BME280;8151;47.824;12.092;2023-05-19T02:01:48;96662.72;;;12.07;69.11
16094;BME280;8151;47.824;12.092;2023-05-19T02:04:29;96654.09;;;12.05;69.04
16094;BME280;8151;47.824;12.092;2023-05-19T02:07:06;96653.44;;;12.02;69.13
16094;BME280;8151;47.824;12.092;2023-05-19T02:09:38;96658.09;;;12.00;69.37
16094;BME280;8151;47.824;12.092;2023-05-19T02:12:13;96657.44;;;11.98;69.51
16094;BME280;8151;47.824;12.092;2023-05-19T02:14:49;96658.25;;;11.99;69.33
16094;BME280;8151;47.824;12.092;2023-05-19T02:17:22;96654.94;;;11.97;69.48
16094;BME280;8151;47.824;12.092;2023-05-19T02:19:55;96655.94;;;11.96;69.68
16094;BME280;8151;47.824;12.092;2023-05-19T02:25:39;96657.09;;;11.93;69.35
16094;BME280;8151;47.824;12.092;2023-05-19T02:28:07;96655.13;;;11.95;69.61
16094;BME280;8151;47.824;12.092;2023-05-19T02:30:35;96652.47;;;11.95;69.67
16094;BME280;8151;47.824;12.092;2023-05-19T02:33:14;96650.81;;;11.94;69.73
16094;BME280;8151;47.824;12.092;2023-05-19T02:35:46;96649.16;;;11.93;69.57
16094;BME280;8151;47.824;12.092;2023-05-19T02:38:15;96649.16;;;11.93;69.79
16094;BME280;8151;47.824;12.092;2023-05-19T02:40:44;96647.53;;;11.92;69.80
16094;BME280;8151;47.824;12.092;2023-05-19T02:43:12;96643.84;;;11.93;69.71
16094;BME280;8151;47.824;12.092;2023-05-19T02:45:41;96642.88;;;11.94;69.79
16094;BME280;8151;47.824;12.092;2023-05-19T02:48:10;96649.16;;;11.93;69.90
16094;BME280;8151;47.824;12.092;2023-05-19T02:50:39;96646.50;;;11.93;69.74
16094;BME280;8151;47.824;12.092;2023-05-19T02:53:11;96643.03;;;11.93;70.01
16094;BME280;8151;47.824;12.092;2023-05-19T02:55:39;96644.19;;;11.90;69.93
16094;BME280;8151;47.824;12.092;2023-05-19T02:58:09;96645.84;;;11.91;69.92
16094;BME280;8151;47.824;12.092;2023-05-19T03:00:37;96636.22;;;11.90;70.13
16094;BME280;8151;47.824;12.092;2023-05-19T03:03:05;96637.88;;;11.91;70.14
16094;BME280;8151;47.824;12.092;2023-05-19T03:05:36;96642.38;;;11.91;70.18
16094;BME280;8151;47.824;12.092;2023-05-19T03:08:04;96630.91;;;11.90;70.11
16094;BME280;8151;47.824;12.092;2023-05-19T03:10:34;96633.41;;;11.92;70.21
16094;BME280;8151;47.824;12.092;2023-05-19T03:13:03;96632.59;;;11.91;70.29
16094;BME280;8151;47.824;12.092;2023-05-19T03:15:31;96636.06;;;11.92;70.23
16094;BME280;8151;47.824;12.092;2023-05-19T03:18:00;96639.03;;;11.89;70.28
16094;BME280;8151;47.824;12.092;2023-05-19T03:20:28;96635.72;;;11.87;70.51
16094;BME280;8151;47.824;12.092;2023-05-19T03:22:57;96635.88;;;11.85;70.52
16094;BME280;8151;47.824;12.092;2023-05-19T03:25:26;96634.06;;;11.86;70.48
16094;BME280;8151;47.824;12.092;2023-05-19T03:27:57;96635.25;;;11.83;70.68
16094;BME280;8151;47.824;12.092;2023-05-19T03:30:25;96630.09;;;11.81;70.98
16094;BME280;8151;47.824;12.092;2023-05-19T03:32:54;96630.25;;;11.80;70.76
16094;BME280;8151;47.824;12.092;2023-05-19T03:35:22;96637.22;;;11.81;70.35
16094;BME280;8151;47.824;12.092;2023-05-19T03:37:51;96631.28;;;11.79;70.55
16094;BME280;8151;47.824;12.092;2023-05-19T03:40:19;96633.94;;;11.79;70.60
16094;BME280;8151;47.824;12.092;2023-05-19T03:42:48;96630.41;;;11.78;70.46
16094;BME280;8151;47.824;12.092;2023-05-19T03:45:18;96635.91;;;11.77;70.75
16094;BME280;8151;47.824;12.092;2023-05-19T03:47:47;96637.72;;;11.76;70.48
16094;BME280;8151;47.824;12.092;2023-05-19T03:50:15;96636.25;;;11.74;70.68
16094;BME280;8151;47.824;12.092;2023-05-19T03:52:44;96637.91;;;11.75;70.66
16094;BME280;8151;47.824;12.092;2023-05-19T03:55:14;96636.25;;;11.74;70.85
16094;BME280;8151;47.824;12.092;2023-05-19T03:57:43;96636.75;;;11.77;70.70
16094;BME280;8151;47.824;12.092;2023-05-19T04:00:12;96635.72;;;11.78;70.96
16094;BME280;8151;47.824;12.092;2023-05-19T04:02:52;96631.75;;;11.74;71.06
16094;BME280;8151;47.824;12.092;2023-05-19T04:05:21;96633.25;;;11.69;70.93
16094;BME280;8151;47.824;12.092;2023-05-19T04:07:49;96628.16;;;11.67;71.27
16094;BME280;8151;47.824;12.092;2023-05-19T04:10:26;96636.56;;;11.71;71.11
16094;BME280;8151;47.824;12.092;2023-05-19T04:12:55;96634.56;;;11.73;71.30
16094;BME280;8151;47.824;12.092;2023-05-19T04:15:24;96633.44;;;11.75;71.42
16094;BME280;8151;47.824;12.092;2023-05-19T04:17:54;96639.38;;;11.77;71.24
16094;BME280;8151;47.824;12.092;2023-05-19T04:20:23;96634.91;;;11.78;71.05
16094;BME280;8151;47.824;12.092;2023-05-19T04:22:51;96635.56;;;11.80;71.36
16094;BME280;8151;47.824;12.092;2023-05-19T04:25:20;96634.59;;;11.81;71.24
16094;BME280;8151;47.824;12.092;2023-05-19T04:27:51;96636.22;;;11.82;71.50
16094;BME280;8151;47.824;12.092;2023-05-19T04:30:23;96638.53;;;11.85;71.28
16094;BME280;8151;47.824;12.092;2023-05-19T04:32:53;96638.53;;;11.85;71.17
16094;BME280;8151;47.824;12.092;2023-05-19T04:35:24;96640.72;;;11.90;71.18
16094;BME280;8151;47.824;12.092;2023-05-19T04:37:52;96643.84;;;11.93;71.37
16094;BME280;8151;47.824;12.092;2023-05-19T04:40:21;96644.34;;;11.97;71.27
16094;BME280;8151;47.824;12.092;2023-05-19T04:42:50;96642.50;;;11.97;71.15
16094;BME280;8151;47.824;12.092;2023-05-19T04:45:20;96640.69;;;11.98;71.26
16094;BME280;8151;47.824;12.092;2023-05-19T04:47:49;96639.03;;;11.97;71.11
16094;BME280;8151;47.824;12.092;2023-05-19T04:50:20;96638.22;;;11.96;71.24
16094;BME280;8151;47.824;12.092;2023-05-19T04:52:49;96642.88;;;11.94;71.39
16094;BME280;8151;47.824;12.092;2023-05-19T04:55:17;96636.06;;;11.92;71.51
16094;BME280;8151;47.824;12.092;2023-05-19T04:57:46;96633.56;;;11.90;71.71
16094;BME280;8151;47.824;12.092;2023-05-19T05:00:15;96637.06;;;11.91;71.46
16094;BME280;8151;47.824;12.092;2023-05-19T05:02:44;96634.25;;;11.92;71.43
16094;BME280;8151;47.824;12.092;2023-05-19T05:05:13;96633.25;;;11.93;71.37
16094;BME280;8151;47.824;12.092;2023-05-19T05:07:44;96626.31;;;11.92;71.43
16094;BME280;8151;47.824;12.092;2023-05-19T05:10:13;96624.13;;;11.96;71.24
16094;BME280;8151;47.824;12.092;2023-05-19T05:12:43;96621.28;;;11.97;71.30
16094;BME280;8151;47.824;12.092;2023-05-19T05:15:13;96630.75;;;12.00;71.36
16094;BME280;8151;47.824;12.092;2023-05-19T05:17:42;96625.25;;;12.01;71.28
16094;BME280;8151;47.824;12.092;2023-05-19T05:20:13;96623.25;;;12.04;71.31
16094;BME280;8151;47.824;12.092;2023-05-19T05:22:45;96618.97;;;12.02;71.20
16094;BME280;8151;47.824;12.092;2023-05-19T05:25:15;96616.97;;;12.05;71.11
16094;BME280;8151;47.824;12.092;2023-05-19T05:27:44;96618.28;;;12.09;71.12
16094;BME280;8151;47.824;12.092;2023-05-19T05:30:13;96614.28;;;12.13;71.14
16094;BME280;8151;47.824;12.092;2023-05-19T05:32:41;96614.59;;;12.18;71.08
16094;BME280;8151;47.824;12.092;2023-05-19T05:35:11;96615.09;;;12.21;70.90
16094;BME280;8151;47.824;12.092;2023-05-19T05:37:40;96628.66;;;12.27;70.75
16094;BME280;8151;47.824;12.092;2023-05-19T05:40:11;96622.19;;;12.29;70.76
16094;BME280;8151;47.824;12.092;2023-05-19T05:42:40;96625.31;;;12.33;70.61
16094;BME280;8151;47.824;12.092;2023-05-19T05:45:09;96619.66;;;12.36;70.74
16094;BME280;8151;47.824;12.092;2023-05-19T05:47:48;96626.28;;;12.40;70.58
16094;BME280;8151;47.824;12.092;2023-05-19T05:50:17;96624.09;;;12.44;70.70
16094;BME280;8151;47.824;12.092;2023-05-19T05:52:47;96622.75;;;12.48;70.43
16094;BME280;8151;47.824;12.092;2023-05-19T05:55:17;96621.88;;;12.55;70.29
16094;BME280;8151;47.824;12.092;2023-05-19T05:57:46;96628.97;;;12.63;70.20
16094;BME280;8151;47.824;12.092;2023-05-19T06:00:15;96627.28;;;12.70;70.26
16094;BME280;8151;47.824;12.092;2023-05-19T06:02:48;96632.06;;;12.75;70.26
16094;BME280;8151;47.824;12.092;2023-05-19T06:05:16;96628.22;;;12.77;70.10
16094;BME280;8151;47.824;12.092;2023-05-19T06:07:45;96638.84;;;12.77;70.26
16094;BME280;8151;47.824;12.092;2023-05-19T06:10:13;96637.19;;;12.76;70.34
16094;BME280;8151;47.824;12.092;2023-05-19T06:12:44;96626.75;;;12.75;70.23
16094;BME280;8151;47.824;12.092;2023-05-19T06:15:13;96636.72;;;12.73;70.34
16094;BME280;8151;47.824;12.092;2023-05-19T06:17:41;96629.78;;;12.72;70.40
16094;BME280;8151;47.824;12.092;2023-05-19T06:20:12;96627.94;;;12.72;70.24
16094;BME280;8151;47.824;12.092;2023-05-19T06:22:40;96627.28;;;12.70;70.41
16094;BME280;8151;47.824;12.092;2023-05-19T06:25:09;96632.75;;;12.69;70.46
16094;BME280;8151;47.824;12.092;2023-05-19T06:27:38;96636.25;;;12.69;70.61
16094;BME280;8151;47.824;12.092;2023-05-19T06:30:10;96635.09;;;12.72;70.47
16094;BME280;8151;47.824;12.092;2023-05-19T06:32:41;96626.03;;;12.81;70.55
16094;BME280;8151;47.824;12.092;2023-05-19T06:35:10;96624.00;;;12.91;70.21
16094;BME280;8151;47.824;12.092;2023-05-19T06:37:38;96621.28;;;12.99;70.01
16094;BME280;8151;47.824;12.092;2023-05-19T06:40:08;96622.25;;;13.07;70.07
16094;BME280;8151;47.824;12.092;2023-05-19T06:42:46;96619.38;;;13.08;69.83
16094;BME280;8151;47.824;12.092;2023-05-19T06:45:16;96626.00;;;13.12;69.67
16094;BME280;8151;47.824;12.092;2023-05-19T06:47:47;96628.31;;;13.15;69.68
16094;BME280;8151;47.824;12.092;2023-05-19T06:50:16;96615.84;;;13.16;69.37
16094;BME280;8151;47.824;12.092;2023-05-19T06:52:45;96625.66;;;13.15;69.71
16094;BME280;8151;47.824;12.092;2023-05-19T06:55:14;96621.78;;;13.18;69.73
16094;BME280;8151;47.824;12.092;2023-05-19T06:57:43;96617.44;;;13.25;69.85
16094;BME280;8151;47.824;12.092;2023-05-19T07:00:14;96616.50;;;13.41;69.53
16094;BME280;8151;47.824;12.092;2023-05-19T07:02:47;96614.50;;;13.58;69.21
16094;BME280;8151;47.824;12.092;2023-05-19T07:05:16;96608.84;;;13.76;69.11
16094;BME280;8151;47.824;12.092;2023-05-19T07:07:46;96608.50;;;13.94;68.77
16094;BME280;8151;47.824;12.092;2023-05-19T07:10:15;96611.53;;;14.06;68.71
16094;BME280;8151;47.824;12.092;2023-05-19T07:12:43;96615.72;;;14.15;68.75
16094;BME280;8151;47.824;12.092;2023-05-19T07:15:15;96613.19;;;14.22;68.93
16094;BME280;8151;47.824;12.092;2023-05-19T07:17:43;96614.63;;;14.24;68.57
16094;BME280;8151;47.824;12.092;2023-05-19T07:20:15;96614.56;;;14.17;68.46
16094;BME280;8151;47.824;12.092;2023-05-19T07:22:46;96609.78;;;14.13;68.63
16094;BME280;8151;47.824;12.092;2023-05-19T07:25:14;96607.09;;;14.13;68.67
16094;BME280;8151;47.824;12.092;2023-05-19T07:27:43;96608.03;;;14.20;68.64
16094;BME280;8151;47.824;12.092;2023-05-19T07:30:13;96610.59;;;14.28;68.70
16094;BME280;8151;47.824;12.092;2023-05-19T07:32:41;96605.34;;;14.35;68.54
16094;BME280;8151;47.824;12.092;2023-05-19T07:35:10;96609.53;;;14.44;68.66
16094;BME280;8151;47.824;12.092;2023-05-19T07:37:39;96608.47;;;14.38;68.58
16094;BME280;8151;47.824;12.092;2023-05-19T07:40:08;96614.88;;;14.44;68.69
16094;BME280;8151;47.824;12.092;2023-05-19T07:42:49;96602.66;;;14.50;68.48
16094;BME280;8151;47.824;12.092;2023-05-19T07:45:17;96600.56;;;14.60;68.33
16094;BME280;8151;47.824;12.092;2023-05-19T07:47:46;96609.06;;;14.70;67.84
16094;BME280;8151;47.824;12.092;2023-05-19T07:50:15;96601.59;;;14.81;67.52
16094;BME280;8151;47.824;12.092;2023-05-19T07:52:45;96598.84;;;14.89;67.20
16094;BME280;8151;47.824;12.092;2023-05-19T07:55:15;96599.88;;;14.94;67.10
16094;BME280;8151;47.824;12.092;2023-05-19T07:57:44;96610.53;;;14.94;67.04
16094;BME280;8151;47.824;12.092;2023-05-19T08:00:15;96601.50;;;14.89;67.50
16094;BME280;8151;47.824;12.092;2023-05-19T08:02:44;96598.75;;;14.82;67.62
16094;BME280;8151;47.824;12.092;2023-05-19T08:05:14;96603.00;;;14.76;67.49
16094;BME280;8151;47.824;12.092;2023-05-19T08:07:46;96593.72;;;14.72;67.37
16094;BME280;8151;47.824;12.092;2023-05-19T08:10:14;96596.38;;;14.72;67.64
16094;BME280;8151;47.824;12.092;2023-05-19T08:12:43;96601.91;;;14.71;67.30
16094;BME280;8151;47.824;12.092;2023-05-19T08:15:13;96597.59;;;14.70;67.25
16094;BME280;8151;47.824;12.092;2023-05-19T08:17:42;96609.88;;;14.71;67.12
16094;BME280;8151;47.824;12.092;2023-05-19T08:20:11;96605.59;;;14.70;67.36
16094;BME280;8151;47.824;12.092;2023-05-19T08:22:40;96599.69;;;14.74;66.93
16094;BME280;8151;47.824;12.092;2023-05-19T08:25:10;96592.22;;;14.85;66.63
16094;BME280;8151;47.824;12.092;2023-05-19T08:27:38;96599.69;;;14.96;66.44
16094;BME280;8151;47.824;12.092;2023-05-19T08:30:08;96595.28;;;15.03;66.35
16094;BME280;8151;47.824;12.092;2023-05-19T08:32:36;96601.69;;;15.09;66.21
16094;BME280;8151;47.824;12.092;2023-05-19T08:35:05;96595.13;;;15.11;66.23
16094;BME280;8151;47.824;12.092;2023-05-19T08:37:35;96599.66;;;15.11;66.19
16094;BME280;8151;47.824;12.092;2023-05-19T08:40:05;96603.75;;;15.13;66.52
16094;BME280;8151;47.824;12.092;2023-05-19T08:42:36;96601.72;;;15.15;66.55
16094;BME280;8151;47.824;12.092;2023-05-19T08:45:06;96601.38;;;15.19;66.39
16094;BME280;8151;47.824;12.092;2023-05-19T08:47:35;96601.03;;;15.28;66.38
16094;BME280;8151;47.824;12.092;2023-05-19T08:50:05;96596.19;;;15.39;66.43
16094;BME280;8151;47.824;12.092;2023-05-19T08:52:42;96594.22;;;15.47;66.29
16094;BME280;8151;47.824;12.092;2023-05-19T08:55:31;96599.84;;;15.59;65.75
16094;BME280;8151;47.824;12.092;2023-05-19T08:58:03;96595.16;;;15.68;65.62
16094;BME280;8151;47.824;12.092;2023-05-19T09:00:32;96584.41;;;15.76;65.55
16094;BME280;8151;47.824;12.092;2023-05-19T09:03:02;96586.66;;;15.79;65.65
16094;BME280;8151;47.824;12.092;2023-05-19T09:05:44;96580.31;;;15.80;65.74
16094;BME280;8151;47.824;12.092;2023-05-19T09:08:14;96580.09;;;15.82;65.24
16094;BME280;8151;47.824;12.092;2023-05-19T09:10:42;96585.03;;;15.78;65.72
16094;BME280;8151;47.824;12.092;2023-05-19T09:13:12;96587.06;;;15.76;65.54
16094;BME280;8151;47.824;12.092;2023-05-19T09:15:41;96586.22;;;15.75;65.54
16094;BME280;8151;47.824;12.092;2023-05-19T09:18:12;96576.41;;;15.76;65.09
16094;BME280;8151;47.824;12.092;2023-05-19T09:20:43;96577.66;;;15.80;65.01
16094;BME280;8151;47.824;12.092;2023-05-19T09:23:15;96576.47;;;15.89;64.97
16094;BME280;8151;47.824;12.092;2023-05-19T09:25:47;96581.44;;;15.99;64.84
16094;BME280;8151;47.824;12.092;2023-05-19T09:28:24;96574.09;;;16.08;64.50
16094;BME280;8151;47.824;12.092;2023-05-19T09:31:02;96584.38;;;16.11;64.44
16094;BME280;8151;47.824;12.092;2023-05-19T09:33:32;96581.94;;;16.09;64.49
16094;BME280;8151;47.824;12.092;2023-05-19T09:36:02;96575.34;;;16.05;64.60
16094;BME280;8151;47.824;12.092;2023-05-19T09:38:32;96575.53;;;16.04;64.57
16094;BME280;8151;47.824;12.092;2023-05-19T09:41:03;96568.41;;;16.18;64.47
16094;BME280;8151;47.824;12.092;2023-05-19T09:43:33;96566.41;;;16.33;63.78
16094;BME280;8151;47.824;12.092;2023-05-19T09:46:03;96570.59;;;16.49;63.66
16094;BME280;8151;47.824;12.092;2023-05-19T09:48:32;96564.00;;;16.51;63.52
16094;BME280;8151;47.824;12.092;2023-05-19T09:51:03;96565.25;;;16.49;63.63
16094;BME280;8151;47.824;12.092;2023-05-19T09:53:38;96572.25;;;16.50;63.85
16094;BME280;8151;47.824;12.092;2023-05-19T09:56:07;96569.38;;;16.58;63.75
16094;BME280;8151;47.824;12.092;2023-05-19T09:58:40;96558.50;;;16.66;63.38
16094;BME280;8151;47.824;12.092;2023-05-19T10:01:09;96562.22;;;16.79;63.46
16094;BME280;8151;47.824;12.092;2023-05-19T10:03:39;96553.66;;;16.83;63.29
16094;BME280;8151;47.824;12.092;2023-05-19T10:06:08;96566.19;;;16.83;63.25
16094;BME280;8151;47.824;12.092;2023-05-19T10:08:38;96553.19;;;16.80;63.23
16094;BME280;8151;47.824;12.092;2023-05-19T10:11:09;96549.47;;;16.74;63.29
16094;BME280;8151;47.824;12.092;2023-05-19T10:13:39;96550.09;;;16.69;63.35
16094;BME280;8151;47.824;12.092;2023-05-19T10:16:08;96550.50;;;16.66;63.50
16094;BME280;8151;47.824;12.092;2023-05-19T10:18:38;96552.34;;;16.66;63.54
16094;BME280;8151;47.824;12.092;2023-05-19T10:21:07;96544.75;;;16.69;63.31
16094;BME280;8151;47.824;12.092;2023-05-19T10:23:36;96542.91;;;16.77;63.04
16094;BME280;8151;47.824;12.092;2023-05-19T10:26:05;96550.56;;;16.86;62.92
16094;BME280;8151;47.824;12.092;2023-05-19T10:28:37;96541.13;;;16.90;62.81
16094;BME280;8151;47.824;12.092;2023-05-19T10:31:10;96541.31;;;16.96;62.60
16094;BME280;8151;47.824;12.092;2023-05-19T10:33:57;96538.66;;;16.96;62.50
16094;BME280;8151;47.824;12.092;2023-05-19T10:36:43;96540.72;;;17.00;62.67
16094;BME280;8151;47.824;12.092;2023-05-19T10:39:16;96535.38;;;17.07;62.67
16094;BME280;8151;47.824;12.092;2023-05-19T10:41:52;96532.06;;;17.11;62.46
16094;BME280;8151;47.824;12.092;2023-05-19T10:44:29;96524.69;;;17.20;62.33
16094;BME280;8151;47.824;12.092;2023-05-19T10:47:01;96538.66;;;17.29;62.12
16094;BME280;8151;47.824;12.092;2023-05-19T10:49:33;96536.59;;;17.31;62.04
16094;BME280;8151;47.824;12.092;2023-05-19T10:52:03;96527.75;;;17.30;61.84
16094;BME280;8151;47.824;12.092;2023-05-19T10:54:41;96516.47;;;17.35;61.63
16094;BME280;8151;47.824;12.092;2023-05-19T10:57:14;96516.22;;;17.37;61.82
16094;BME280;8151;47.824;12.092;2023-05-19T10:59:43;96520.75;;;17.36;62.08
16094;BME280;8151;47.824;12.092;2023-05-19T11:05:16;96514.81;;;17.27;62.10
16094;BME280;8151;47.824;12.092;2023-05-19T11:07:55;96520.75;;;17.23;61.86
16094;BME280;8151;47.824;12.092;2023-05-19T11:10:28;96521.78;;;17.15;62.22
16094;BME280;8151;47.824;12.092;2023-05-19T11:12:57;96519.72;;;17.04;62.26
16094;BME280;8151;47.824;12.092;2023-05-19T11:15:26;96522.41;;;16.97;62.29
16094;BME280;8151;47.824;12.092;2023-05-19T11:18:00;96523.84;;;16.86;62.50
16094;BME280;8151;47.824;12.092;2023-05-19T11:20:30;96523.19;;;16.78;62.64
16094;BME280;8151;47.824;12.092;2023-05-19T11:23:05;96520.91;;;16.74;62.56
16094;BME280;8151;47.824;12.092;2023-05-19T11:25:41;96516.00;;;16.71;62.44
16094;BME280;8151;47.824;12.092;2023-05-19T11:28:10;96524.41;;;16.68;62.63
16094;BME280;8151;47.824;12.092;2023-05-19T11:30:43;96521.31;;;16.65;62.58
16094;BME280;8151;47.824;12.092;2023-05-19T11:33:12;96521.91;;;16.60;62.79
16094;BME280;8151;47.824;12.092;2023-05-19T11:35:42;96519.44;;;16.52;62.91
16094;BME280;8151;47.824;12.092;2023-05-19T11:38:13;96527.41;;;16.45;62.83
16094;BME280;8151;47.824;12.092;2023-05-19T11:40:42;96515.09;;;16.44;62.83
16094;BME280;8151;47.824;12.092;2023-05-19T11:43:11;96515.06;;;16.38;63.00
16094;BME280;8151;47.824;12.092;2023-05-19T11:45:39;96524.13;;;16.37;63.19
16094;BME280;8151;47.824;12.092;2023-05-19T11:48:10;96531.94;;;16.38;62.91
16094;BME280;8151;47.824;12.092;2023-05-19T11:50:39;96513.25;;;16.38;62.96
16094;BME280;8151;47.824;12.092;2023-05-19T11:53:11;96516.53;;;16.40;62.85
16094;BME280;8151;47.824;12.092;2023-05-19T11:55:41;96527.41;;;16.45;62.80
16094;BME280;8151;47.824;12.092;2023-05-19T11:58:11;96531.75;;;16.46;62.79
16094;BME280;8151;47.824;12.092;2023-05-19T12:00:42;96518.78;;;16.43;62.71
16094;BME280;8151;47.824;12.092;2023-05-19T12:03:12;96525.38;;;16.41;62.75
16094;BME280;8151;47.824;12.092;2023-05-19T12:05:43;96521.25;;;16.38;63.16
16094;BME280;8151;47.824;12.092;2023-05-19T12:08:15;96523.09;;;16.38;62.97
16094;BME280;8151;47.824;12.092;2023-05-19T12:10:48;96522.28;;;16.37;62.81
16094;BME280;8151;47.824;12.092;2023-05-19T12:13:18;96518.38;;;16.40;62.75
16094;BME280;8151;47.824;12.092;2023-05-19T12:15:50;96523.72;;;16.40;62.92
16094;BME280;8151;47.824;12.092;2023-05-19T12:18:19;96521.25;;;16.38;63.04
16094;BME280;8151;47.824;12.092;2023-05-19T12:20:48;96526.38;;;16.40;62.90
16094;BME280;8151;47.824;12.092;2023-05-19T12:23:18;96524.31;;;16.42;62.98
16094;BME280;8151;47.824;12.092;2023-05-19T12:25:48;96517.56;;;16.46;62.98
16094;BME280;8151;47.824;12.092;2023-05-19T12:28:18;96515.53;;;16.48;63.04
16094;BME280;8151;47.824;12.092;2023-05-19T12:30:48;96515.31;;;16.49;62.98
16094;BME280;8151;47.824;12.092;2023-05-19T12:33:18;96518.41;;;16.53;62.97
16094;BME280;8151;47.824;12.092;2023-05-19T12:35:47;96512.25;;;16.59;62.67
16094;BME280;8151;47.824;12.092;2023-05-19T12:38:20;96511.22;;;16.60;62.75
16094;BME280;8151;47.824;12.092;2023-05-19T12:40:50;96514.53;;;16.62;62.77
16094;BME280;8151;47.824;12.092;2023-05-19T12:43:19;96509.41;;;16.67;62.74
16094;BME280;8151;47.824;12.092;2023-05-19T12:45:48;96516.59;;;16.73;62.63
16094;BME280;8151;47.824;12.092;2023-05-19T12:48:20;96503.03;;;16.75;62.66
16094;BME280;8151;47.824;12.092;2023-05-19T12:50:50;96500.75;;;16.79;62.39
16094;BME280;8151;47.824;12.092;2023-05-19T12:53:21;96499.75;;;16.80;62.32
16094;BME280;8151;47.824;12.092;2023-05-19T12:55:50;96504.06;;;16.81;62.21
16094;BME280;8151;47.824;12.092;2023-05-19T12:58:20;96502.22;;;16.81;62.30
16094;BME280;8151;47.824;12.092;2023-05-19T13:00:56;96502.63;;;16.78;62.33
16094;BME280;8151;47.824;12.092;2023-05-19T13:03:25;96497.47;;;16.77;62.60
16094;BME280;8151;47.824;12.092;2023-05-19T13:05:54;96499.53;;;16.74;62.55
16094;BME280;8151;47.824;12.092;2023-05-19T13:08:26;96492.13;;;16.70;62.73
16094;BME280;8151;47.824;12.092;2023-05-19T13:10:55;96494.00;;;16.69;62.69
16094;BME280;8151;47.824;12.092;2023-05-19T13:13:24;96497.88;;;16.67;62.70
16094;BME280;8151;47.824;12.092;2023-05-19T13:15:52;96501.59;;;16.66;62.67
16094;BME280;8151;47.824;12.092;2023-05-19T13:18:21;96499.13;;;16.64;62.75
16094;BME280;8151;47.824;12.092;2023-05-19T13:20:50;96483.47;;;16.61;62.90
16094;BME280;8151;47.824;12.092;2023-05-19T13:23:20;96490.88;;;16.59;62.64